createdAt,value
2022-11-14T00:00:32.966Z,51.50
2022-11-14T00:01:08.386Z,51.30
2022-11-14T00:01:43.378Z,47.70
2022-11-14T00:02:18.637Z,47.80
2022-11-14T00:02:53.834Z,50.10
2022-11-14T00:03:28.969Z,43.70
2022-11-14T00:04:04.019Z,45.10
2022-11-14T00:04:39.316Z,43.50
2022-11-14T00:05:14.596Z,46.80
2022-11-14T00:05:49.599Z,40.00
2022-11-14T00:06:24.669Z,45.10
2022-11-14T00:07:00.268Z,50.70
2022-11-14T00:07:35.367Z,46.70
2022-11-14T00:08:10.993Z,45.30
2022-11-14T00:08:46.195Z,53.00
2022-11-14T00:09:21.395Z,50.30
2022-11-14T00:09:57.017Z,48.10
2022-11-14T00:10:32.401Z,46.60
2022-11-14T00:11:07.500Z,45.60
2022-11-14T00:11:42.886Z,53.00
2022-11-14T00:12:18.067Z,46.90
2022-11-14T00:12:53.367Z,42.10
2022-11-14T00:13:28.644Z,44.50
2022-11-14T00:14:03.881Z,49.80
2022-11-14T00:14:39.170Z,48.70
2022-11-14T00:15:14.458Z,44.00
2022-11-14T00:15:49.552Z,44.70
2022-11-14T00:16:24.550Z,43.60
2022-11-14T00:16:59.456Z,45.70
2022-11-14T00:17:34.656Z,47.60
2022-11-14T00:18:09.858Z,43.50
2022-11-14T00:18:45.050Z,40.60
2022-11-14T00:19:20.343Z,43.70
2022-11-14T00:19:55.841Z,44.20
2022-11-14T00:20:30.940Z,38.50
2022-11-14T00:21:06.218Z,43.50
2022-11-14T00:21:41.530Z,46.60
2022-11-14T00:22:16.537Z,58.40
2022-11-14T00:22:51.619Z,51.50
2022-11-14T00:23:26.828Z,46.10
2022-11-14T00:24:01.946Z,41.20
2022-11-14T00:24:37.324Z,41.00
2022-11-14T00:25:12.477Z,45.90
2022-11-14T00:25:47.972Z,56.20
2022-11-14T00:26:23.339Z,56.40
2022-11-14T00:26:58.509Z,49.10
2022-11-14T00:27:34.006Z,49.60
2022-11-14T00:28:09.281Z,47.60
2022-11-14T00:28:44.576Z,47.80
2022-11-14T00:29:20.067Z,47.80
2022-11-14T00:29:55.062Z,45.80
2022-11-14T00:30:30.303Z,53.70
2022-11-14T00:31:05.395Z,52.00
2022-11-14T00:31:40.689Z,50.00
2022-11-14T00:32:15.980Z,48.80
2022-11-14T00:32:51.169Z,56.50
2022-11-14T00:33:26.839Z,48.40
2022-11-14T00:34:02.138Z,50.90
2022-11-14T00:34:37.526Z,50.40
2022-11-14T00:35:12.740Z,52.50
2022-11-14T00:35:47.773Z,51.90
2022-11-14T00:36:23.269Z,47.20
2022-11-14T00:36:58.456Z,46.70
2022-11-14T00:37:33.924Z,48.30
2022-11-14T00:38:09.033Z,50.30
2022-11-14T00:38:44.266Z,51.90
2022-11-14T00:39:19.575Z,49.60
2022-11-14T00:39:54.670Z,52.20
2022-11-14T00:40:30.157Z,51.00
2022-11-14T00:41:05.475Z,50.80
2022-11-14T00:41:40.659Z,44.30
2022-11-14T00:42:16.045Z,50.90
2022-11-14T00:42:51.315Z,51.30
2022-11-14T00:43:26.521Z,50.20
2022-11-14T00:44:01.830Z,51.10
2022-11-14T00:44:36.922Z,57.70
2022-11-14T00:45:12.019Z,50.50
2022-11-14T00:45:47.296Z,43.80
2022-11-14T00:46:22.663Z,50.40
2022-11-14T00:46:58.238Z,46.40
2022-11-14T00:47:33.231Z,53.00
2022-11-14T00:48:08.638Z,54.20
2022-11-14T00:48:43.820Z,54.40
2022-11-14T00:49:19.029Z,57.40
2022-11-14T00:49:54.203Z,56.60
2022-11-14T00:50:29.405Z,47.40
2022-11-14T00:51:04.383Z,48.70
2022-11-14T00:51:39.491Z,50.30
2022-11-14T00:52:14.907Z,51.90
2022-11-14T00:52:50.083Z,51.90
2022-11-14T00:53:25.580Z,50.50
2022-11-14T00:54:00.666Z,48.00
2022-11-14T00:54:36.374Z,56.50
2022-11-14T00:55:11.659Z,57.90
2022-11-14T00:55:46.681Z,52.70
2022-11-14T00:56:21.942Z,55.20
2022-11-14T00:56:57.367Z,55.80
2022-11-14T00:57:32.780Z,52.60
2022-11-14T00:58:07.860Z,48.90
2022-11-14T00:58:43.267Z,50.70
2022-11-14T00:59:18.340Z,47.40
2022-11-14T00:59:53.359Z,49.10
2022-11-14T01:00:28.487Z,53.40
2022-11-14T01:01:03.712Z,51.80
2022-11-14T01:01:38.952Z,63.40
2022-11-14T01:02:14.253Z,63.80
2022-11-14T01:02:49.544Z,57.80
2022-11-14T01:03:24.826Z,58.80
2022-11-14T01:04:00.242Z,54.80
2022-11-14T01:04:35.523Z,53.10
2022-11-14T01:05:10.753Z,52.40
2022-11-14T01:05:45.765Z,48.20
2022-11-14T01:06:21.269Z,48.10
2022-11-14T01:06:56.267Z,43.90
2022-11-14T01:07:31.577Z,49.90
2022-11-14T01:08:06.564Z,49.00
2022-11-14T01:08:41.852Z,48.20
2022-11-14T01:09:17.182Z,51.20
2022-11-14T01:09:52.434Z,60.00
2022-11-14T01:10:27.525Z,53.00
2022-11-14T01:11:02.596Z,51.80
2022-11-14T01:11:37.697Z,66.30
2022-11-14T01:12:12.890Z,58.20
2022-11-14T01:12:48.295Z,54.50
2022-11-14T01:13:23.491Z,56.10
2022-11-14T01:13:58.995Z,46.40
2022-11-14T01:14:34.390Z,47.20
2022-11-14T01:15:09.695Z,51.70
2022-11-14T01:15:45.177Z,51.10
2022-11-14T01:16:20.781Z,53.10
2022-11-14T01:16:56.162Z,49.00
2022-11-14T01:17:31.153Z,50.50
2022-11-14T01:18:06.756Z,55.20
2022-11-14T01:18:42.038Z,50.70
2022-11-14T01:19:17.028Z,45.50
2022-11-14T01:19:52.215Z,45.70
2022-11-14T01:20:27.397Z,52.90
2022-11-14T01:21:02.575Z,50.10
2022-11-14T01:21:37.966Z,53.40
2022-11-14T01:22:13.242Z,55.30
2022-11-14T01:22:48.732Z,57.00
2022-11-14T01:23:24.130Z,53.50
2022-11-14T01:23:59.598Z,43.30
2022-11-14T01:24:34.695Z,44.20
2022-11-14T01:25:10.008Z,46.90
2022-11-14T01:25:45.326Z,54.00
2022-11-14T01:26:20.416Z,60.20
2022-11-14T01:26:55.613Z,55.50
2022-11-14T01:27:30.818Z,51.90
2022-11-14T01:28:06.209Z,55.70
2022-11-14T01:28:41.431Z,52.90
2022-11-14T01:29:16.740Z,53.30
2022-11-14T01:29:52.026Z,53.00
2022-11-14T01:30:27.310Z,53.00
2022-11-14T01:31:02.592Z,55.90
2022-11-14T01:31:37.885Z,59.70
2022-11-14T01:32:13.354Z,52.30
2022-11-14T01:32:48.783Z,53.50
2022-11-14T01:33:23.867Z,53.00
2022-11-14T01:33:59.179Z,52.00
2022-11-14T01:34:34.170Z,52.50
2022-11-14T01:35:09.270Z,51.60
2022-11-14T01:35:44.662Z,49.10
2022-11-14T01:36:19.847Z,55.20
2022-11-14T01:36:55.143Z,49.30
2022-11-14T01:37:30.436Z,50.20
2022-11-14T01:38:05.629Z,47.30
2022-11-14T01:38:40.615Z,50.00
2022-11-14T01:39:16.073Z,50.40
2022-11-14T01:39:51.286Z,52.00
2022-11-14T01:40:26.781Z,58.50
2022-11-14T01:41:01.966Z,56.20
2022-11-14T01:41:37.085Z,52.40
2022-11-14T01:42:12.281Z,49.20
2022-11-14T01:42:47.468Z,45.70
2022-11-14T01:43:22.470Z,48.60
2022-11-14T01:43:57.734Z,53.70
2022-11-14T01:44:33.270Z,57.50
2022-11-14T01:45:08.260Z,62.90
2022-11-14T01:45:43.253Z,49.40
2022-11-14T01:46:18.554Z,51.40
2022-11-14T01:46:53.839Z,57.60
2022-11-14T01:47:29.048Z,58.30
2022-11-14T01:48:04.323Z,56.20
2022-11-14T01:48:39.823Z,54.70
2022-11-14T01:49:15.149Z,60.30
2022-11-14T01:49:50.444Z,54.50
2022-11-14T01:50:25.757Z,54.20
2022-11-14T01:51:01.236Z,56.50
2022-11-14T01:51:36.555Z,55.80
2022-11-14T01:52:11.661Z,50.40
2022-11-14T01:52:47.055Z,50.40
2022-11-14T01:53:22.256Z,51.10
2022-11-14T01:53:57.641Z,50.70
2022-11-14T01:54:32.861Z,50.90
2022-11-14T01:55:07.974Z,53.30
2022-11-14T01:55:43.160Z,55.90
2022-11-14T01:56:18.358Z,58.50
2022-11-14T01:56:53.460Z,62.30
2022-11-14T01:57:28.781Z,62.70
2022-11-14T01:58:04.077Z,55.50
2022-11-14T01:58:39.382Z,51.70
2022-11-14T01:59:14.777Z,53.60
2022-11-14T01:59:50.069Z,59.50
2022-11-14T02:00:25.571Z,53.70
2022-11-14T02:01:00.733Z,47.40
2022-11-14T02:01:35.813Z,47.20
2022-11-14T02:02:10.983Z,52.80
2022-11-14T02:02:46.183Z,55.30
2022-11-14T02:03:21.385Z,48.10
2022-11-14T02:03:56.769Z,45.90
2022-11-14T02:04:31.963Z,49.10
2022-11-14T02:05:06.972Z,55.10
2022-11-14T02:05:42.372Z,50.00
2022-11-14T02:06:17.391Z,47.80
2022-11-14T02:06:52.936Z,58.50
2022-11-14T02:07:28.271Z,56.90
2022-11-14T02:08:03.482Z,53.90
2022-11-14T02:08:38.386Z,50.00
2022-11-14T02:09:13.881Z,53.00
2022-11-14T02:09:49.190Z,49.00
2022-11-14T02:10:24.478Z,46.20
2022-11-14T02:10:59.700Z,48.00
2022-11-14T02:11:35.411Z,48.70
2022-11-14T02:12:10.630Z,47.80
2022-11-14T02:12:45.916Z,51.50
2022-11-14T02:13:20.939Z,50.50
2022-11-14T02:13:56.429Z,49.90
2022-11-14T02:14:31.744Z,55.40
2022-11-14T02:15:07.041Z,48.20
2022-11-14T02:15:42.345Z,53.20
2022-11-14T02:16:17.644Z,50.70
2022-11-14T02:17:14.798Z,54.50
2022-11-14T02:17:30.654Z,55.50
2022-11-14T02:18:03.265Z,55.80
2022-11-14T02:18:38.671Z,50.60
2022-11-14T02:19:13.567Z,50.60
2022-11-14T02:19:48.769Z,63.00
2022-11-14T02:20:24.157Z,61.30
2022-11-14T02:20:59.760Z,54.10
2022-11-14T02:21:35.158Z,49.30
2022-11-14T02:22:10.436Z,45.80
2022-11-14T02:22:45.836Z,45.80
2022-11-14T02:23:21.436Z,50.00
2022-11-14T02:23:56.961Z,48.10
2022-11-14T02:24:32.359Z,51.10
2022-11-14T02:25:07.838Z,54.20
2022-11-14T02:25:42.935Z,47.40
2022-11-14T02:26:18.420Z,40.90
2022-11-14T02:26:54.023Z,44.00
2022-11-14T02:27:29.396Z,49.90
2022-11-14T02:28:04.695Z,48.00
2022-11-14T02:28:39.798Z,45.30
2022-11-14T02:29:14.992Z,47.80
2022-11-14T02:29:50.394Z,52.60
2022-11-14T02:30:25.799Z,50.50
2022-11-14T02:31:01.335Z,45.50
2022-11-14T02:31:36.824Z,49.20
2022-11-14T02:32:12.209Z,48.20
2022-11-14T02:33:13.627Z,46.60
2022-11-14T02:33:22.895Z,47.00
2022-11-14T02:33:58.088Z,46.30
2022-11-14T02:34:33.291Z,47.90
2022-11-14T02:35:08.284Z,44.30
2022-11-14T02:35:43.385Z,47.40
2022-11-14T02:36:18.568Z,45.80
2022-11-14T02:36:53.885Z,44.90
2022-11-14T02:37:29.372Z,44.70
2022-11-14T02:38:04.669Z,45.70
2022-11-14T02:38:40.076Z,47.50
2022-11-14T02:39:15.476Z,49.20
2022-11-14T02:39:50.567Z,52.00
2022-11-14T02:40:25.867Z,49.70
2022-11-14T02:41:01.287Z,56.80
2022-11-14T02:41:36.395Z,53.70
2022-11-14T02:42:11.587Z,44.00
2022-11-14T02:42:47.088Z,39.50
2022-11-14T02:43:22.679Z,45.70
2022-11-14T02:43:57.970Z,56.90
2022-11-14T02:44:33.453Z,57.40
2022-11-14T02:45:08.843Z,47.90
2022-11-14T02:45:43.849Z,42.80
2022-11-14T02:46:18.944Z,48.60
2022-11-14T02:46:54.550Z,47.90
2022-11-14T02:47:29.539Z,55.60
2022-11-14T02:48:04.539Z,46.80
2022-11-14T02:48:39.637Z,43.70
2022-11-14T02:49:14.827Z,46.20
2022-11-14T02:49:50.003Z,50.30
2022-11-14T02:50:25.212Z,54.30
2022-11-14T02:51:00.099Z,50.10
2022-11-14T02:51:35.199Z,47.70
2022-11-14T02:52:10.381Z,47.60
2022-11-14T02:52:45.796Z,47.20
2022-11-14T02:53:21.015Z,45.80
2022-11-14T02:53:56.003Z,43.70
2022-11-14T02:54:31.041Z,50.30
2022-11-14T02:55:06.518Z,50.90
2022-11-14T02:55:41.914Z,48.20
2022-11-14T02:56:17.106Z,43.50
2022-11-14T02:56:52.498Z,43.50
2022-11-14T02:57:27.784Z,47.20
2022-11-14T02:58:03.078Z,47.10
2022-11-14T02:58:38.499Z,46.30
2022-11-14T02:59:13.903Z,46.00
2022-11-14T02:59:49.282Z,51.30
2022-11-14T03:00:24.448Z,49.20
2022-11-14T03:01:19.741Z,50.90
2022-11-14T03:01:35.114Z,59.20
2022-11-14T03:02:10.398Z,61.00
2022-11-14T03:02:45.369Z,49.80
2022-11-14T03:03:20.721Z,44.00
2022-11-14T03:03:55.923Z,48.10
2022-11-14T03:04:31.311Z,50.70
2022-11-14T03:05:06.488Z,55.20
2022-11-14T03:05:41.508Z,55.60
2022-11-14T03:06:16.700Z,59.10
2022-11-14T03:06:52.135Z,52.90
2022-11-14T03:07:27.270Z,44.20
2022-11-14T03:08:02.284Z,47.50
2022-11-14T03:08:37.584Z,55.90
2022-11-14T03:09:12.773Z,55.10
2022-11-14T03:09:48.192Z,51.30
2022-11-14T03:10:23.685Z,51.20
2022-11-14T03:10:58.930Z,53.90
2022-11-14T03:11:34.160Z,52.20
2022-11-14T03:12:09.355Z,49.90
2022-11-14T03:12:44.468Z,46.80
2022-11-14T03:13:19.603Z,50.40
2022-11-14T03:13:54.984Z,47.20
2022-11-14T03:14:30.185Z,53.90
2022-11-14T03:15:05.481Z,55.20
2022-11-14T03:15:40.662Z,47.80
2022-11-14T03:16:15.758Z,50.60
2022-11-14T03:16:50.953Z,54.30
2022-11-14T03:17:26.435Z,60.10
2022-11-14T03:18:01.727Z,51.00
2022-11-14T03:18:37.157Z,46.70
2022-11-14T03:19:12.536Z,49.90
2022-11-14T03:19:47.947Z,49.90
2022-11-14T03:20:23.436Z,56.50
2022-11-14T03:20:59.109Z,55.20
2022-11-14T03:21:34.219Z,56.10
2022-11-14T03:22:09.418Z,56.20
2022-11-14T03:22:44.717Z,54.80
2022-11-14T03:23:20.107Z,54.40
2022-11-14T03:23:55.206Z,53.60
2022-11-14T03:24:30.329Z,52.00
2022-11-14T03:25:05.795Z,53.40
2022-11-14T03:25:41.104Z,58.90
2022-11-14T03:26:17.608Z,57.60
2022-11-14T03:26:52.790Z,56.40
2022-11-14T03:27:28.262Z,62.20
2022-11-14T03:28:03.267Z,52.10
2022-11-14T03:28:38.466Z,51.30
2022-11-14T03:29:13.566Z,51.00
2022-11-14T03:29:48.853Z,55.80
2022-11-14T03:30:24.062Z,54.00
2022-11-14T03:30:59.255Z,51.00
2022-11-14T03:31:34.444Z,50.40
2022-11-14T03:32:09.637Z,49.20
2022-11-14T03:32:44.832Z,54.30
2022-11-14T03:33:19.847Z,63.30
2022-11-14T03:33:55.139Z,56.60
2022-11-14T03:34:30.433Z,51.10
2022-11-14T03:35:05.738Z,51.60
2022-11-14T03:35:40.928Z,50.70
2022-11-14T03:36:16.227Z,54.60
2022-11-14T03:36:51.733Z,55.60
2022-11-14T03:37:26.910Z,52.40
2022-11-14T03:38:02.213Z,54.90
2022-11-14T03:38:37.314Z,54.50
2022-11-14T03:39:12.603Z,53.40
2022-11-14T03:39:47.978Z,58.40
2022-11-14T03:40:23.021Z,55.50
2022-11-14T03:40:58.264Z,56.00
2022-11-14T03:41:33.549Z,56.60
2022-11-14T03:42:08.740Z,56.30
2022-11-14T03:42:44.319Z,48.50
2022-11-14T03:43:19.437Z,49.00
2022-11-14T03:43:54.720Z,53.00
2022-11-14T03:44:29.909Z,57.40
2022-11-14T03:45:05.219Z,55.80
2022-11-14T03:45:40.494Z,52.30
2022-11-14T03:46:15.485Z,51.20
2022-11-14T03:46:50.671Z,52.10
2022-11-14T03:47:25.991Z,56.30
2022-11-14T03:48:01.196Z,59.90
2022-11-14T03:48:36.596Z,58.80
2022-11-14T03:49:11.807Z,43.70
2022-11-14T03:49:47.203Z,53.40
2022-11-14T03:50:22.189Z,60.50
2022-11-14T03:50:57.101Z,52.20
2022-11-14T03:51:32.492Z,55.40
2022-11-14T03:52:07.895Z,54.40
2022-11-14T03:52:42.984Z,54.40
2022-11-14T03:53:18.415Z,58.70
2022-11-14T03:53:53.904Z,52.70
2022-11-14T03:54:29.310Z,58.30
2022-11-14T03:55:04.616Z,60.80
2022-11-14T03:55:39.926Z,52.40
2022-11-14T03:56:15.253Z,54.70
2022-11-14T03:56:50.462Z,62.80
2022-11-14T03:57:25.671Z,62.70
2022-11-14T03:58:00.775Z,58.50
2022-11-14T03:58:36.179Z,56.30
2022-11-14T03:59:11.504Z,55.60
2022-11-14T03:59:46.792Z,58.20
2022-11-14T04:00:22.003Z,55.40
2022-11-14T04:00:57.238Z,55.90
2022-11-14T04:01:32.393Z,58.90
2022-11-14T04:02:07.491Z,56.80
2022-11-14T04:02:42.593Z,51.00
2022-11-14T04:03:17.856Z,46.90
2022-11-14T04:03:53.154Z,48.50
2022-11-14T04:04:28.750Z,51.80
2022-11-14T04:05:03.850Z,49.80
2022-11-14T04:05:39.153Z,44.40
2022-11-14T04:06:14.652Z,51.50
2022-11-14T04:06:50.294Z,50.00
2022-11-14T04:07:25.279Z,58.00
2022-11-14T04:08:00.452Z,54.70
2022-11-14T04:08:35.870Z,62.70
2022-11-14T04:09:10.957Z,53.20
2022-11-14T04:09:46.065Z,52.30
2022-11-14T04:10:21.153Z,59.60
2022-11-14T04:10:56.850Z,49.30
2022-11-14T04:11:32.176Z,48.80
2022-11-14T04:12:10.129Z,53.00
2022-11-14T04:12:42.459Z,54.40
2022-11-14T04:13:17.687Z,55.70
2022-11-14T04:13:52.886Z,52.70
2022-11-14T04:14:28.175Z,49.50
2022-11-14T04:15:03.388Z,49.10
2022-11-14T04:15:38.594Z,44.10
2022-11-14T04:16:13.923Z,44.30
2022-11-14T04:16:49.177Z,53.00
2022-11-14T04:17:24.356Z,52.00
2022-11-14T04:17:59.658Z,47.00
2022-11-14T04:18:35.074Z,49.90
2022-11-14T04:19:10.282Z,58.50
2022-11-14T04:19:45.569Z,54.50
2022-11-14T04:20:20.754Z,49.30
2022-11-14T04:20:55.959Z,49.20
2022-11-14T04:21:30.955Z,51.20
2022-11-14T04:22:06.662Z,52.30
2022-11-14T04:22:41.757Z,54.50
2022-11-14T04:23:16.969Z,45.70
2022-11-14T04:23:52.271Z,51.50
2022-11-14T04:24:27.577Z,55.00
2022-11-14T04:25:03.062Z,51.90
2022-11-14T04:25:38.272Z,53.60
2022-11-14T04:26:13.571Z,61.00
2022-11-14T04:26:49.064Z,53.10
2022-11-14T04:27:24.264Z,51.30
2022-11-14T04:27:59.461Z,53.90
2022-11-14T04:28:34.665Z,54.50
2022-11-14T04:29:10.078Z,52.40
2022-11-14T04:29:45.616Z,50.20
2022-11-14T04:30:20.755Z,53.60
2022-11-14T04:30:55.723Z,49.60
2022-11-14T04:31:31.046Z,48.60
2022-11-14T04:32:06.145Z,55.80
2022-11-14T04:32:41.339Z,56.50
2022-11-14T04:33:16.550Z,58.10
2022-11-14T04:33:51.790Z,60.70
2022-11-14T04:34:27.381Z,53.70
2022-11-14T04:35:02.569Z,48.30
2022-11-14T04:35:37.869Z,43.10
2022-11-14T04:36:12.977Z,46.90
2022-11-14T04:36:48.083Z,59.40
2022-11-14T04:37:23.481Z,56.00
2022-11-14T04:37:58.774Z,53.30
2022-11-14T04:38:33.968Z,56.10
2022-11-14T04:39:09.069Z,51.90
2022-11-14T04:39:44.401Z,52.80
2022-11-14T04:40:19.698Z,50.50
2022-11-14T04:40:54.943Z,48.40
2022-11-14T04:41:30.439Z,48.80
2022-11-14T04:42:06.053Z,50.40
2022-11-14T04:42:40.951Z,42.70
2022-11-14T04:43:16.164Z,45.80
2022-11-14T04:43:51.463Z,49.40
2022-11-14T04:44:26.747Z,44.70
2022-11-14T04:45:02.375Z,47.70
2022-11-14T04:45:37.377Z,49.40
2022-11-14T04:46:12.381Z,47.90
2022-11-14T04:46:47.691Z,47.00
2022-11-14T04:47:22.998Z,47.10
2022-11-14T04:47:57.999Z,49.60
2022-11-14T04:48:33.266Z,47.20
2022-11-14T04:49:08.225Z,48.90
2022-11-14T04:49:43.526Z,48.20
2022-11-14T04:50:18.931Z,43.40
2022-11-14T04:50:54.324Z,45.20
2022-11-14T04:51:29.521Z,44.30
2022-11-14T04:52:04.621Z,53.50
2022-11-14T04:52:39.711Z,53.20
2022-11-14T04:53:15.136Z,50.70
2022-11-14T04:53:50.319Z,53.40
2022-11-14T04:54:25.954Z,45.80
2022-11-14T04:55:01.251Z,49.60
2022-11-14T04:55:36.231Z,43.70
2022-11-14T04:56:11.652Z,52.40
2022-11-14T04:56:47.138Z,53.40
2022-11-14T04:57:22.670Z,50.70
2022-11-14T04:57:57.969Z,52.40
2022-11-14T04:58:33.714Z,48.30
2022-11-14T04:59:08.714Z,53.30
2022-11-14T04:59:43.703Z,50.00
2022-11-14T05:00:18.910Z,49.00
2022-11-14T05:00:53.890Z,60.00
2022-11-14T05:01:29.456Z,57.00
2022-11-14T05:02:04.799Z,56.90
2022-11-14T05:02:39.794Z,55.00
2022-11-14T05:03:15.210Z,50.10
2022-11-14T05:03:50.506Z,48.60
2022-11-14T05:04:25.902Z,50.10
2022-11-14T05:05:01.094Z,52.20
2022-11-14T05:05:40.722Z,60.30
2022-11-14T05:06:11.334Z,62.60
2022-11-14T05:06:46.776Z,54.70
2022-11-14T05:07:21.869Z,55.40
2022-11-14T05:07:57.013Z,48.40
2022-11-14T05:08:32.637Z,46.60
2022-11-14T05:09:07.637Z,53.60
2022-11-14T05:09:43.031Z,51.20
2022-11-14T05:10:18.248Z,54.20
2022-11-14T05:10:53.447Z,58.50
2022-11-14T05:11:29.487Z,54.80
2022-11-14T05:12:04.247Z,54.00
2022-11-14T05:12:39.542Z,49.50
2022-11-14T05:13:15.636Z,52.80
2022-11-14T05:13:50.934Z,48.50
2022-11-14T05:14:25.936Z,52.20
2022-11-14T05:15:01.233Z,58.10
2022-11-14T05:15:36.442Z,57.20
2022-11-14T05:16:11.447Z,47.20
2022-11-14T05:16:46.744Z,44.60
2022-11-14T05:17:21.968Z,49.20
2022-11-14T05:17:57.151Z,50.30
2022-11-14T05:18:32.729Z,55.10
2022-11-14T05:19:07.501Z,50.20
2022-11-14T05:19:42.591Z,45.50
2022-11-14T05:20:17.896Z,47.10
2022-11-14T05:20:53.003Z,48.20
2022-11-14T05:21:28.107Z,48.60
2022-11-14T05:22:03.229Z,52.30
2022-11-14T05:22:38.511Z,53.60
2022-11-14T05:23:14.016Z,55.40
2022-11-14T05:23:49.215Z,51.20
2022-11-14T05:24:24.425Z,45.60
2022-11-14T05:24:59.618Z,52.90
2022-11-14T05:25:34.825Z,59.80
2022-11-14T05:26:10.130Z,55.10
2022-11-14T05:26:45.339Z,48.20
2022-11-14T05:27:20.935Z,48.20
2022-11-14T05:27:56.239Z,48.10
2022-11-14T05:28:31.825Z,52.20
2022-11-14T05:29:06.743Z,52.00
2022-11-14T05:29:41.937Z,42.10
2022-11-14T05:30:17.062Z,47.70
2022-11-14T05:30:52.151Z,50.30
2022-11-14T05:31:27.260Z,49.60
2022-11-14T05:32:02.335Z,49.20
2022-11-14T05:32:37.934Z,46.20
2022-11-14T05:33:13.123Z,45.10
2022-11-14T05:33:48.420Z,47.20
2022-11-14T05:34:23.510Z,53.20
2022-11-14T05:34:58.815Z,50.80
2022-11-14T05:35:34.007Z,43.40
2022-11-14T05:36:09.412Z,41.20
2022-11-14T05:36:44.425Z,43.60
2022-11-14T05:37:19.726Z,51.60
2022-11-14T05:37:58.877Z,48.50
2022-11-14T05:38:30.410Z,51.80
2022-11-14T05:39:05.336Z,50.20
2022-11-14T05:39:40.722Z,49.10
2022-11-14T05:40:16.022Z,55.90
2022-11-14T05:40:51.013Z,52.20
2022-11-14T05:41:26.748Z,51.10
2022-11-14T05:42:02.017Z,46.90
2022-11-14T05:42:37.299Z,53.80
2022-11-14T05:43:12.505Z,53.00
2022-11-14T05:43:47.590Z,46.50
2022-11-14T05:44:22.997Z,49.90
2022-11-14T05:44:58.612Z,48.50
2022-11-14T05:45:33.798Z,50.50
2022-11-14T05:46:09.015Z,54.40
2022-11-14T05:46:44.199Z,54.50
2022-11-14T05:47:19.308Z,43.90
2022-11-14T05:47:54.826Z,51.90
2022-11-14T05:48:30.407Z,46.70
2022-11-14T05:49:05.330Z,41.10
2022-11-14T05:49:40.610Z,41.50
2022-11-14T05:50:15.723Z,45.70
2022-11-14T05:50:50.723Z,53.40
2022-11-14T05:51:25.827Z,55.50
2022-11-14T05:52:00.820Z,51.80
2022-11-14T05:52:35.924Z,53.90
2022-11-14T05:53:10.923Z,51.10
2022-11-14T05:53:46.120Z,47.50
2022-11-14T05:54:21.428Z,48.70
2022-11-14T05:54:56.636Z,49.50
2022-11-14T05:55:31.935Z,55.60
2022-11-14T05:56:07.033Z,48.40
2022-11-14T05:56:42.432Z,44.50
2022-11-14T05:57:17.538Z,50.40
2022-11-14T05:57:52.720Z,53.70
2022-11-14T05:58:28.260Z,49.40
2022-11-14T05:59:03.147Z,49.00
2022-11-14T05:59:38.445Z,50.80
2022-11-14T06:00:13.546Z,45.30
2022-11-14T06:00:53.886Z,46.50
2022-11-14T06:01:24.079Z,48.80
2022-11-14T06:01:59.519Z,55.80
2022-11-14T06:02:34.789Z,53.10
2022-11-14T06:03:09.884Z,49.40
2022-11-14T06:03:45.173Z,50.50
2022-11-14T06:04:20.391Z,55.20
2022-11-14T06:04:55.493Z,54.10
2022-11-14T06:05:30.776Z,53.10
2022-11-14T06:06:06.080Z,49.60
2022-11-14T06:06:41.390Z,55.40
2022-11-14T06:07:19.950Z,48.60
2022-11-14T06:07:51.881Z,44.80
2022-11-14T06:08:27.788Z,46.20
2022-11-14T06:09:02.539Z,51.90
2022-11-14T06:09:37.725Z,53.10
2022-11-14T06:10:13.143Z,50.80
2022-11-14T06:10:48.145Z,45.30
2022-11-14T06:11:23.583Z,49.90
2022-11-14T06:11:58.599Z,45.00
2022-11-14T06:12:33.695Z,43.60
2022-11-14T06:13:08.917Z,47.80
2022-11-14T06:13:44.034Z,45.10
2022-11-14T06:14:19.463Z,46.60
2022-11-14T06:14:54.758Z,44.40
2022-11-14T06:15:29.864Z,55.90
2022-11-14T06:16:05.052Z,51.20
2022-11-14T06:16:40.369Z,43.80
2022-11-14T06:17:15.650Z,42.70
2022-11-14T06:17:50.852Z,53.40
2022-11-14T06:18:26.070Z,46.30
2022-11-14T06:19:01.262Z,48.10
2022-11-14T06:19:36.467Z,48.00
2022-11-14T06:20:11.784Z,45.90
2022-11-14T06:20:47.062Z,46.30
2022-11-14T06:21:22.423Z,48.60
2022-11-14T06:21:57.603Z,54.70
2022-11-14T06:22:32.711Z,46.10
2022-11-14T06:23:07.705Z,51.20
2022-11-14T06:23:42.925Z,51.40
2022-11-14T06:24:18.518Z,45.80
2022-11-14T06:24:53.805Z,46.00
2022-11-14T06:25:29.428Z,46.80
2022-11-14T06:26:04.706Z,47.70
2022-11-14T06:26:40.223Z,50.70
2022-11-14T06:27:15.534Z,47.50
2022-11-14T06:27:50.821Z,44.20
2022-11-14T06:28:26.023Z,44.20
2022-11-14T06:29:01.309Z,44.10
2022-11-14T06:29:36.414Z,48.80
2022-11-14T06:30:11.587Z,44.80
2022-11-14T06:30:46.828Z,38.10
2022-11-14T06:31:21.891Z,47.20
2022-11-14T06:31:57.191Z,45.70
2022-11-14T06:32:32.496Z,44.90
2022-11-14T06:33:07.595Z,47.20
2022-11-14T06:33:42.685Z,42.40
2022-11-14T06:34:17.966Z,42.90
2022-11-14T06:34:53.261Z,45.40
2022-11-14T06:35:28.458Z,43.50
2022-11-14T06:36:03.687Z,43.50
2022-11-14T06:36:38.802Z,39.10
2022-11-14T06:37:14.490Z,40.10
2022-11-14T06:37:49.793Z,39.40
2022-11-14T06:38:24.891Z,39.40
2022-11-14T06:38:59.884Z,41.90
2022-11-14T06:39:35.270Z,44.80
2022-11-14T06:40:10.613Z,43.50
2022-11-14T06:40:45.919Z,47.10
2022-11-14T06:41:20.930Z,45.50
2022-11-14T06:41:56.466Z,45.10
2022-11-14T06:42:31.841Z,43.40
2022-11-14T06:43:07.029Z,42.90
2022-11-14T06:43:42.025Z,41.70
2022-11-14T06:44:18.063Z,46.40
2022-11-14T06:44:52.411Z,44.60
2022-11-14T06:45:27.815Z,40.40
2022-11-14T06:46:03.349Z,38.90
2022-11-14T06:46:38.666Z,37.20
2022-11-14T06:47:14.063Z,42.90
2022-11-14T06:47:49.347Z,47.00
2022-11-14T06:48:24.668Z,46.90
2022-11-14T06:49:00.064Z,43.40
2022-11-14T06:49:39.362Z,42.60
2022-11-14T06:50:10.972Z,42.70
2022-11-14T06:50:46.054Z,44.60
2022-11-14T06:51:21.284Z,39.10
2022-11-14T06:51:56.693Z,35.90
2022-11-14T06:52:31.907Z,38.00
2022-11-14T06:53:07.202Z,40.00
2022-11-14T06:53:42.407Z,39.60
2022-11-14T06:54:17.799Z,38.10
2022-11-14T06:54:52.869Z,41.60
2022-11-14T06:55:28.098Z,41.70
2022-11-14T06:56:03.393Z,40.90
2022-11-14T06:56:38.818Z,39.90
2022-11-14T06:57:14.052Z,42.00
2022-11-14T06:57:49.347Z,36.70
2022-11-14T06:58:24.551Z,45.80
2022-11-14T06:58:59.649Z,44.50
2022-11-14T06:59:34.972Z,41.30
2022-11-14T07:00:10.000Z,39.00
2022-11-14T07:00:45.002Z,38.00
2022-11-14T07:01:20.497Z,39.80
2022-11-14T07:01:55.913Z,45.40
2022-11-14T07:02:31.215Z,43.90
2022-11-14T07:03:06.714Z,42.20
2022-11-14T07:03:41.842Z,45.50
2022-11-14T07:04:17.135Z,43.80
2022-11-14T07:04:52.441Z,40.40
2022-11-14T07:05:27.538Z,41.40
2022-11-14T07:06:02.644Z,41.70
2022-11-14T07:06:37.937Z,40.20
2022-11-14T07:07:13.565Z,38.50
2022-11-14T07:07:48.976Z,38.10
2022-11-14T07:08:24.164Z,39.10
2022-11-14T07:08:59.274Z,45.30
2022-11-14T07:09:34.570Z,47.00
2022-11-14T07:10:09.781Z,42.40
2022-11-14T07:10:45.287Z,42.20
2022-11-14T07:11:20.795Z,39.60
2022-11-14T07:11:56.195Z,35.40
2022-11-14T07:12:31.283Z,33.80
2022-11-14T07:13:06.519Z,47.10
2022-11-14T07:13:41.811Z,43.90
2022-11-14T07:14:17.203Z,36.50
2022-11-14T07:14:52.286Z,39.60
2022-11-14T07:15:27.682Z,39.70
2022-11-14T07:16:02.887Z,36.30
2022-11-14T07:16:38.082Z,40.80
2022-11-14T07:17:13.076Z,41.70
2022-11-14T07:17:48.262Z,42.10
2022-11-14T07:18:23.398Z,41.80
2022-11-14T07:18:58.791Z,42.10
2022-11-14T07:19:33.895Z,48.20
2022-11-14T07:20:09.112Z,49.30
2022-11-14T07:20:44.846Z,40.80
2022-11-14T07:21:19.948Z,35.30
2022-11-14T07:21:55.526Z,37.50
2022-11-14T07:22:31.041Z,43.50
2022-11-14T07:23:06.366Z,36.70
2022-11-14T07:23:41.674Z,35.20
2022-11-14T07:24:16.872Z,39.90
2022-11-14T07:24:52.560Z,41.90
2022-11-14T07:25:27.873Z,42.00
2022-11-14T07:26:02.961Z,39.20
2022-11-14T07:26:38.569Z,42.30
2022-11-14T07:27:13.862Z,38.60
2022-11-14T07:27:49.066Z,35.80
2022-11-14T07:28:23.954Z,39.60
2022-11-14T07:29:02.589Z,39.20
2022-11-14T07:29:34.482Z,36.00
2022-11-14T07:30:09.966Z,39.50
2022-11-14T07:30:45.194Z,41.30
2022-11-14T07:31:20.503Z,38.40
2022-11-14T07:31:55.899Z,39.00
2022-11-14T07:32:31.092Z,34.80
2022-11-14T07:33:06.683Z,38.10
2022-11-14T07:33:41.680Z,42.10
2022-11-14T07:34:16.902Z,38.30